sensor_id;sensor_type;location;lat;lon;timestamp;pressure;altitude;pressure_sealevel;temperature;humidity
46614;BME280;32338;50.430;6.806;2022-09-13T00:00:20;96282.03;;;13.16;100.00
46614;BME280;32338;50.430;6.806;2022-09-13T00:02:47;96279.22;;;13.10;100.00
46614;BME280;32338;50.430;6.806;2022-09-13T00:05:14;96274.38;;;13.01;100.00
46614;BME280;32338;50.430;6.806;2022-09-13T00:07:41;96272.41;;;12.96;100.00
46614;BME280;32338;50.430;6.806;2022-09-13T00:10:08;96281.59;;;12.93;100.00
46614;BME280;32338;50.430;6.806;2022-09-13T00:12:34;96277.78;;;12.82;100.00
46614;BME280;32338;50.430;6.806;2022-09-13T00:15:02;96280.28;;;12.77;100.00
46614;BME280;32338;50.430;6.806;2022-09-13T00:17:29;96272.16;;;12.72;100.00
46614;BME280;32338;50.430;6.806;2022-09-13T00:19:56;96272.38;;;12.71;100.00
46614;BME280;32338;50.430;6.806;2022-09-13T00:22:23;96255.25;;;12.67;100.00
46614;BME280;32338;50.430;6.806;2022-09-13T00:24:49;96255.69;;;12.63;100.00
46614;BME280;32338;50.430;6.806;2022-09-13T00:27:16;96259.59;;;12.61;100.00
46614;BME280;32338;50.430;6.806;2022-09-13T00:29:42;96252.03;;;12.64;100.00
46614;BME280;32338;50.430;6.806;2022-09-13T00:32:09;96256.25;;;12.72;100.00
46614;BME280;32338;50.430;6.806;2022-09-13T00:34:37;96252.09;;;12.83;100.00
46614;BME280;32338;50.430;6.806;2022-09-13T00:37:03;96252.91;;;12.84;100.00
46614;BME280;32338;50.430;6.806;2022-09-13T00:39:30;96242.56;;;12.75;100.00
46614;BME280;32338;50.430;6.806;2022-09-13T00:41:57;96239.53;;;12.72;100.00
46614;BME280;32338;50.430;6.806;2022-09-13T00:44:50;96245.75;;;12.59;100.00
46614;BME280;32338;50.430;6.806;2022-09-13T00:47:20;96253.13;;;12.50;100.00
46614;BME280;32338;50.430;6.806;2022-09-13T00:49:51;96252.91;;;12.52;100.00
46614;BME280;32338;50.430;6.806;2022-09-13T00:52:22;96261.88;;;12.51;100.00
46614;BME280;32338;50.430;6.806;2022-09-13T00:54:54;96257.81;;;12.48;100.00
46614;BME280;32338;50.430;6.806;2022-09-13T00:57:26;96256.16;;;12.54;100.00
46614;BME280;32338;50.430;6.806;2022-09-13T00:59:58;96256.78;;;12.49;100.00
46614;BME280;32338;50.430;6.806;2022-09-13T01:02:28;96253.50;;;12.54;100.00
46614;BME280;32338;50.430;6.806;2022-09-13T01:04:56;96253.72;;;12.52;100.00
46614;BME280;32338;50.430;6.806;2022-09-13T01:07:23;96262.06;;;12.56;100.00
46614;BME280;32338;50.430;6.806;2022-09-13T01:09:50;96255.59;;;12.45;100.00
46614;BME280;32338;50.430;6.806;2022-09-13T01:12:27;96259.38;;;12.24;100.00
46614;BME280;32338;50.430;6.806;2022-09-13T01:14:58;96267.38;;;12.17;100.00
46614;BME280;32338;50.430;6.806;2022-09-13T01:17:26;96274.91;;;12.13;100.00
46614;BME280;32338;50.430;6.806;2022-09-13T01:19:53;96268.03;;;12.06;100.00
46614;BME280;32338;50.430;6.806;2022-09-13T01:22:47;96259.25;;;12.12;100.00
46614;BME280;32338;50.430;6.806;2022-09-13T01:25:57;96267.19;;;12.05;100.00
46614;BME280;32338;50.430;6.806;2022-09-13T01:28:40;96267.59;;;11.95;100.00
46614;BME280;32338;50.430;6.806;2022-09-13T01:31:18;96268.25;;;11.97;100.00
46614;BME280;32338;50.430;6.806;2022-09-13T01:34:00;96262.97;;;11.91;100.00
46614;BME280;32338;50.430;6.806;2022-09-13T01:39:52;96261.16;;;11.84;100.00
46614;BME280;32338;50.430;6.806;2022-09-13T01:42:30;96264.59;;;11.98;100.00
46614;BME280;32338;50.430;6.806;2022-09-13T01:45:07;96271.25;;;12.08;100.00
46614;BME280;32338;50.430;6.806;2022-09-13T01:47:44;96267.38;;;12.10;100.00
46614;BME280;32338;50.430;6.806;2022-09-13T01:50:18;96250.88;;;12.15;100.00
46614;BME280;32338;50.430;6.806;2022-09-13T01:52:53;96261.41;;;12.22;100.00
46614;BME280;32338;50.430;6.806;2022-09-13T01:55:30;96258.94;;;12.33;100.00
46614;BME280;32338;50.430;6.806;2022-09-13T01:58:06;96257.91;;;12.35;100.00
46614;BME280;32338;50.430;6.806;2022-09-13T02:00:38;96266.03;;;12.33;100.00
46614;BME280;32338;50.430;6.806;2022-09-13T02:03:13;96268.13;;;12.31;100.00
46614;BME280;32338;50.430;6.806;2022-09-13T02:05:46;96259.41;;;12.17;100.00
46614;BME280;32338;50.430;6.806;2022-09-13T02:08:16;96252.09;;;12.12;100.00
46614;BME280;32338;50.430;6.806;2022-09-13T02:10:46;96258.06;;;11.94;100.00
46614;BME280;32338;50.430;6.806;2022-09-13T02:13:26;96263.75;;;11.91;100.00
46614;BME280;32338;50.430;6.806;2022-09-13T02:15:58;96261.50;;;12.02;100.00
46614;BME280;32338;50.430;6.806;2022-09-13T02:18:29;96248.50;;;11.93;100.00
46614;BME280;32338;50.430;6.806;2022-09-13T02:21:00;96244.63;;;11.89;100.00
46614;BME280;32338;50.430;6.806;2022-09-13T02:23:33;96257.03;;;12.02;100.00
46614;BME280;32338;50.430;6.806;2022-09-13T02:26:03;96244.38;;;12.11;100.00
46614;BME280;32338;50.430;6.806;2022-09-13T02:28:35;96246.59;;;12.14;100.00
46614;BME280;32338;50.430;6.806;2022-09-13T02:31:03;96237.41;;;12.23;100.00
46614;BME280;32338;50.430;6.806;2022-09-13T02:33:36;96243.31;;;12.19;100.00
46614;BME280;32338;50.430;6.806;2022-09-13T02:36:08;96240.63;;;12.25;100.00
46614;BME280;32338;50.430;6.806;2022-09-13T02:38:39;96237.63;;;12.15;100.00
46614;BME280;32338;50.430;6.806;2022-09-13T02:41:14;96238.66;;;12.14;100.00
46614;BME280;32338;50.430;6.806;2022-09-13T02:43:45;96228.94;;;12.01;100.00
46614;BME280;32338;50.430;6.806;2022-09-13T02:46:20;96226.34;;;11.81;100.00
46614;BME280;32338;50.430;6.806;2022-09-13T02:48:57;96222.63;;;12.02;100.00
46614;BME280;32338;50.430;6.806;2022-09-13T02:51:30;96231.75;;;12.06;100.00
46614;BME280;32338;50.430;6.806;2022-09-13T02:54:08;96219.97;;;11.95;100.00
46614;BME280;32338;50.430;6.806;2022-09-13T02:56:44;96210.25;;;11.82;100.00
46614;BME280;32338;50.430;6.806;2022-09-13T02:59:15;96211.03;;;11.96;100.00
46614;BME280;32338;50.430;6.806;2022-09-13T03:01:46;96215.88;;;12.06;100.00
46614;BME280;32338;50.430;6.806;2022-09-13T03:04:15;96212.59;;;12.11;100.00
46614;BME280;32338;50.430;6.806;2022-09-13T03:06:42;96209.53;;;12.14;100.00
46614;BME280;32338;50.430;6.806;2022-09-13T03:09:08;96213.34;;;12.25;100.00
46614;BME280;32338;50.430;6.806;2022-09-13T03:11:44;96210.69;;;12.25;100.00
46614;BME280;32338;50.430;6.806;2022-09-13T03:14:29;96211.31;;;12.20;100.00
46614;BME280;32338;50.430;6.806;2022-09-13T03:17:12;96208.44;;;12.28;100.00
46614;BME280;32338;50.430;6.806;2022-09-13T03:20:02;96210.31;;;12.21;100.00
46614;BME280;32338;50.430;6.806;2022-09-13T03:23:04;96208.50;;;12.15;100.00
46614;BME280;32338;50.430;6.806;2022-09-13T03:25:59;96199.19;;;12.06;100.00
46614;BME280;32338;50.430;6.806;2022-09-13T03:28:36;96185.91;;;12.12;100.00
46614;BME280;32338;50.430;6.806;2022-09-13T03:31:07;96182.41;;;12.19;100.00
46614;BME280;32338;50.430;6.806;2022-09-13T03:33:41;96173.47;;;12.13;100.00
46614;BME280;32338;50.430;6.806;2022-09-13T03:36:13;96167.59;;;12.11;100.00
46614;BME280;32338;50.430;6.806;2022-09-13T03:38:44;96163.88;;;12.19;100.00
46614;BME280;32338;50.430;6.806;2022-09-13T03:41:18;96153.44;;;12.24;100.00
46614;BME280;32338;50.430;6.806;2022-09-13T03:43:49;96137.50;;;12.30;100.00
46614;BME280;32338;50.430;6.806;2022-09-13T03:46:21;96137.88;;;12.41;100.00
46614;BME280;32338;50.430;6.806;2022-09-13T03:48:50;96153.78;;;12.34;100.00
46614;BME280;32338;50.430;6.806;2022-09-13T03:51:20;96165.66;;;12.25;100.00
46614;BME280;32338;50.430;6.806;2022-09-13T03:53:51;96176.50;;;12.23;100.00
46614;BME280;32338;50.430;6.806;2022-09-13T03:56:20;96178.56;;;12.14;100.00
46614;BME280;32338;50.430;6.806;2022-09-13T03:58:47;96173.06;;;12.09;100.00
46614;BME280;32338;50.430;6.806;2022-09-13T04:01:15;96161.47;;;12.10;100.00
46614;BME280;32338;50.430;6.806;2022-09-13T04:03:44;96158.97;;;12.22;100.00
46614;BME280;32338;50.430;6.806;2022-09-13T04:06:10;96152.97;;;12.33;100.00
46614;BME280;32338;50.430;6.806;2022-09-13T04:08:38;96154.91;;;12.20;100.00
46614;BME280;32338;50.430;6.806;2022-09-13T04:11:05;96188.72;;;12.18;100.00
46614;BME280;32338;50.430;6.806;2022-09-13T04:13:33;96190.13;;;12.20;100.00
46614;BME280;32338;50.430;6.806;2022-09-13T04:16:00;96196.03;;;12.22;100.00
46614;BME280;32338;50.430;6.806;2022-09-13T04:18:28;96200.66;;;12.33;100.00
46614;BME280;32338;50.430;6.806;2022-09-13T04:20:56;96192.03;;;12.45;100.00
46614;BME280;32338;50.430;6.806;2022-09-13T04:23:23;96195.13;;;12.35;100.00
46614;BME280;32338;50.430;6.806;2022-09-13T04:25:52;96206.19;;;12.25;100.00
46614;BME280;32338;50.430;6.806;2022-09-13T04:28:20;96209.69;;;12.26;100.00
46614;BME280;32338;50.430;6.806;2022-09-13T04:30:48;96212.09;;;12.27;100.00
46614;BME280;32338;50.430;6.806;2022-09-13T04:33:15;96212.09;;;12.27;100.00
46614;BME280;32338;50.430;6.806;2022-09-13T04:35:42;96218.00;;;12.29;100.00
46614;BME280;32338;50.430;6.806;2022-09-13T04:38:08;96224.50;;;12.33;100.00
46614;BME280;32338;50.430;6.806;2022-09-13T04:40:35;96236.28;;;12.38;100.00
46614;BME280;32338;50.430;6.806;2022-09-13T04:43:04;96240.56;;;12.39;100.00
46614;BME280;32338;50.430;6.806;2022-09-13T04:45:31;96247.03;;;12.43;100.00
46614;BME280;32338;50.430;6.806;2022-09-13T04:47:57;96238.09;;;12.44;100.00
46614;BME280;32338;50.430;6.806;2022-09-13T04:50:24;96241.28;;;12.53;100.00
46614;BME280;32338;50.430;6.806;2022-09-13T04:52:53;96238.78;;;12.64;100.00
46614;BME280;32338;50.430;6.806;2022-09-13T04:55:20;96233.66;;;12.70;100.00
46614;BME280;32338;50.430;6.806;2022-09-13T04:57:46;96241.63;;;12.63;100.00
46614;BME280;32338;50.430;6.806;2022-09-13T05:00:15;96239.66;;;12.52;100.00
46614;BME280;32338;50.430;6.806;2022-09-13T05:02:41;96240.38;;;12.33;100.00
46614;BME280;32338;50.430;6.806;2022-09-13T05:05:08;96239.44;;;12.21;100.00
46614;BME280;32338;50.430;6.806;2022-09-13T05:07:35;96236.97;;;12.26;100.00
46614;BME280;32338;50.430;6.806;2022-09-13T05:10:01;96231.44;;;12.28;100.00
46614;BME280;32338;50.430;6.806;2022-09-13T05:12:28;96233.47;;;12.32;100.00
46614;BME280;32338;50.430;6.806;2022-09-13T05:14:55;96240.16;;;12.35;100.00
46614;BME280;32338;50.430;6.806;2022-09-13T05:17:23;96244.22;;;12.38;100.00
46614;BME280;32338;50.430;6.806;2022-09-13T05:19:49;96247.34;;;12.28;100.00
46614;BME280;32338;50.430;6.806;2022-09-13T05:22:16;96243.88;;;12.27;100.00
46614;BME280;32338;50.430;6.806;2022-09-13T05:24:42;96240.22;;;12.28;100.00
46614;BME280;32338;50.430;6.806;2022-09-13T05:27:09;96243.44;;;12.30;100.00
46614;BME280;32338;50.430;6.806;2022-09-13T05:29:36;96248.28;;;12.40;100.00
46614;BME280;32338;50.430;6.806;2022-09-13T05:32:03;96244.38;;;12.49;100.00
46614;BME280;32338;50.430;6.806;2022-09-13T05:34:31;96241.84;;;12.61;100.00
46614;BME280;32338;50.430;6.806;2022-09-13T05:36:57;96244.44;;;12.68;100.00
46614;BME280;32338;50.430;6.806;2022-09-13T05:39:24;96245.09;;;12.63;100.00
46614;BME280;32338;50.430;6.806;2022-09-13T05:41:50;96243.88;;;12.66;100.00
46614;BME280;32338;50.430;6.806;2022-09-13T05:44:17;96242.84;;;12.67;100.00
46614;BME280;32338;50.430;6.806;2022-09-13T05:46:45;96249.56;;;12.63;100.00
46614;BME280;32338;50.430;6.806;2022-09-13T05:49:13;96260.47;;;12.48;100.00
46614;BME280;32338;50.430;6.806;2022-09-13T05:51:41;96253.59;;;12.40;100.00
46614;BME280;32338;50.430;6.806;2022-09-13T05:54:10;96253.88;;;12.25;100.00
46614;BME280;32338;50.430;6.806;2022-09-13T05:56:36;96248.34;;;12.33;100.00
46614;BME280;32338;50.430;6.806;2022-09-13T05:59:03;96256.66;;;12.37;100.00
46614;BME280;32338;50.430;6.806;2022-09-13T06:01:29;96247.44;;;12.46;100.00
46614;BME280;32338;50.430;6.806;2022-09-13T06:03:57;96245.63;;;12.47;100.00
46614;BME280;32338;50.430;6.806;2022-09-13T06:06:24;96241.50;;;12.51;100.00
46614;BME280;32338;50.430;6.806;2022-09-13T06:08:52;96241.50;;;12.51;100.00
46614;BME280;32338;50.430;6.806;2022-09-13T06:11:19;96244.53;;;12.55;100.00
46614;BME280;32338;50.430;6.806;2022-09-13T06:13:46;96242.22;;;12.65;100.00
46614;BME280;32338;50.430;6.806;2022-09-13T06:16:14;96245.75;;;12.59;100.00
46614;BME280;32338;50.430;6.806;2022-09-13T06:18:41;96233.03;;;12.68;100.00
46614;BME280;32338;50.430;6.806;2022-09-13T06:21:09;96227.13;;;12.65;100.00
46614;BME280;32338;50.430;6.806;2022-09-13T06:23:36;96230.38;;;12.68;100.00
46614;BME280;32338;50.430;6.806;2022-09-13T06:26:07;96231.38;;;12.73;100.00
46614;BME280;32338;50.430;6.806;2022-09-13T06:28:34;96225.03;;;12.74;100.00
46614;BME280;32338;50.430;6.806;2022-09-13T06:31:03;96213.72;;;12.86;100.00
46614;BME280;32338;50.430;6.806;2022-09-13T06:33:30;96214.25;;;12.94;100.00
46614;BME280;32338;50.430;6.806;2022-09-13T06:36:02;96209.84;;;12.88;100.00
46614;BME280;32338;50.430;6.806;2022-09-13T06:38:29;96217.22;;;12.86;100.00
46614;BME280;32338;50.430;6.806;2022-09-13T06:41:00;96222.44;;;12.93;100.00
46614;BME280;32338;50.430;6.806;2022-09-13T06:43:28;96216.72;;;12.96;100.00
46614;BME280;32338;50.430;6.806;2022-09-13T06:45:59;96222.22;;;12.94;100.00
46614;BME280;32338;50.430;6.806;2022-09-13T06:48:25;96219.41;;;12.89;100.00
46614;BME280;32338;50.430;6.806;2022-09-13T06:50:52;96225.22;;;13.05;100.00
46614;BME280;32338;50.430;6.806;2022-09-13T06:53:22;96231.38;;;12.98;100.00
46614;BME280;32338;50.430;6.806;2022-09-13T06:55:59;96227.09;;;12.97;100.00
46614;BME280;32338;50.430;6.806;2022-09-13T06:58:25;96229.16;;;12.95;100.00
46614;BME280;32338;50.430;6.806;2022-09-13T07:01:09;96231.41;;;12.92;100.00
46614;BME280;32338;50.430;6.806;2022-09-13T07:03:37;96227.34;;;12.96;100.00
46614;BME280;32338;50.430;6.806;2022-09-13T07:06:09;96221.81;;;12.97;100.00
46614;BME280;32338;50.430;6.806;2022-09-13T07:08:37;96224.34;;;13.11;100.00
46614;BME280;32338;50.430;6.806;2022-09-13T07:11:04;96220.28;;;13.08;100.00
46614;BME280;32338;50.430;6.806;2022-09-13T07:13:31;96218.91;;;13.24;100.00
46614;BME280;32338;50.430;6.806;2022-09-13T07:16:01;96217.09;;;13.25;100.00
46614;BME280;32338;50.430;6.806;2022-09-13T07:18:28;96221.66;;;13.36;100.00
46614;BME280;32338;50.430;6.806;2022-09-13T07:20:58;96221.47;;;13.38;100.00
46614;BME280;32338;50.430;6.806;2022-09-13T07:23:26;96230.03;;;13.40;100.00
46614;BME280;32338;50.430;6.806;2022-09-13T07:25:53;96231.44;;;13.42;100.00
46614;BME280;32338;50.430;6.806;2022-09-13T07:28:20;96230.19;;;13.45;100.00
46614;BME280;32338;50.430;6.806;2022-09-13T07:30:47;96236.97;;;13.41;100.00
46614;BME280;32338;50.430;6.806;2022-09-13T07:33:15;96246.69;;;13.47;100.00
46614;BME280;32338;50.430;6.806;2022-09-13T07:35:41;96241.81;;;13.44;100.00
46614;BME280;32338;50.430;6.806;2022-09-13T07:38:08;96249.22;;;13.35;100.00
46614;BME280;32338;50.430;6.806;2022-09-13T07:40:34;96250.56;;;13.19;100.00
46614;BME280;32338;50.430;6.806;2022-09-13T07:43:01;96259.56;;;13.18;100.00
46614;BME280;32338;50.430;6.806;2022-09-13T07:45:28;96264.44;;;13.21;100.00
46614;BME280;32338;50.430;6.806;2022-09-13T07:47:54;96254.22;;;13.25;100.00
46614;BME280;32338;50.430;6.806;2022-09-13T07:50:22;96251.50;;;13.32;100.00
46614;BME280;32338;50.430;6.806;2022-09-13T07:52:49;96249.44;;;13.34;100.00
46614;BME280;32338;50.430;6.806;2022-09-13T07:55:15;96231.13;;;13.25;100.00
46614;BME280;32338;50.430;6.806;2022-09-13T07:57:42;96224.88;;;13.20;100.00
46614;BME280;32338;50.430;6.806;2022-09-13T08:00:09;96208.28;;;13.24;100.00
46614;BME280;32338;50.430;6.806;2022-09-13T08:02:36;96200.34;;;13.24;100.00
46614;BME280;32338;50.430;6.806;2022-09-13T08:05:03;96204.19;;;13.28;100.00
46614;BME280;32338;50.430;6.806;2022-09-13T08:07:31;96197.97;;;13.41;100.00
46614;BME280;32338;50.430;6.806;2022-09-13T08:09:58;96198.47;;;13.69;100.00
46614;BME280;32338;50.430;6.806;2022-09-13T08:12:24;96203.66;;;13.64;100.00
46614;BME280;32338;50.430;6.806;2022-09-13T08:14:51;96216.84;;;13.70;100.00
46614;BME280;32338;50.430;6.806;2022-09-13T08:17:17;96215.72;;;13.78;100.00
46614;BME280;32338;50.430;6.806;2022-09-13T08:19:44;96215.34;;;13.93;100.00
46614;BME280;32338;50.430;6.806;2022-09-13T08:22:11;96216.75;;;13.95;100.00
46614;BME280;32338;50.430;6.806;2022-09-13T08:24:39;96211.78;;;13.99;100.00
46614;BME280;32338;50.430;6.806;2022-09-13T08:27:05;96212.03;;;14.28;100.00
46614;BME280;32338;50.430;6.806;2022-09-13T08:29:32;96204.75;;;14.23;100.00
46614;BME280;32338;50.430;6.806;2022-09-13T08:31:59;96205.63;;;14.48;100.00
46614;BME280;32338;50.430;6.806;2022-09-13T08:34:25;96198.09;;;14.33;100.00
46614;BME280;32338;50.430;6.806;2022-09-13T08:36:52;96202.59;;;14.32;100.00
46614;BME280;32338;50.430;6.806;2022-09-13T08:39:19;96197.63;;;14.36;100.00
46614;BME280;32338;50.430;6.806;2022-09-13T08:42:05;96201.09;;;14.36;100.00
46614;BME280;32338;50.430;6.806;2022-09-13T08:44:36;96206.56;;;14.53;100.00
46614;BME280;32338;50.430;6.806;2022-09-13T08:47:22;96206.44;;;14.48;100.00
46614;BME280;32338;50.430;6.806;2022-09-13T08:49:52;96211.53;;;14.50;100.00
46614;BME280;32338;50.430;6.806;2022-09-13T08:52:28;96211.44;;;14.56;100.00
46614;BME280;32338;50.430;6.806;2022-09-13T08:54:56;96209.94;;;14.60;100.00
46614;BME280;32338;50.430;6.806;2022-09-13T08:57:27;96209.19;;;14.72;100.00
46614;BME280;32338;50.430;6.806;2022-09-13T09:00:02;96217.03;;;14.67;100.00
46614;BME280;32338;50.430;6.806;2022-09-13T09:02:50;96218.38;;;14.57;100.00
46614;BME280;32338;50.430;6.806;2022-09-13T09:05:20;96218.13;;;14.89;100.00
46614;BME280;32338;50.430;6.806;2022-09-13T09:07:50;96221.47;;;14.97;100.00
46614;BME280;32338;50.430;6.806;2022-09-13T09:10:20;96223.69;;;15.12;100.00
46614;BME280;32338;50.430;6.806;2022-09-13T09:12:52;96223.81;;;15.05;100.00
46614;BME280;32338;50.430;6.806;2022-09-13T09:15:23;96229.13;;;15.05;100.00
46614;BME280;32338;50.430;6.806;2022-09-13T09:17:56;96229.47;;;15.20;100.00
46614;BME280;32338;50.430;6.806;2022-09-13T09:20:27;96228.78;;;15.49;100.00
46614;BME280;32338;50.430;6.806;2022-09-13T09:22:59;96227.97;;;15.48;100.00
46614;BME280;32338;50.430;6.806;2022-09-13T09:25:27;96240.13;;;15.32;100.00
46614;BME280;32338;50.430;6.806;2022-09-13T09:27:56;96238.97;;;15.40;100.00
46614;BME280;32338;50.430;6.806;2022-09-13T09:30:31;96247.16;;;15.62;100.00
46614;BME280;32338;50.430;6.806;2022-09-13T09:33:12;96248.44;;;15.71;100.00
46614;BME280;32338;50.430;6.806;2022-09-13T09:35:51;96254.81;;;15.47;100.00
46614;BME280;32338;50.430;6.806;2022-09-13T09:38:35;96249.97;;;15.44;100.00
46614;BME280;32338;50.430;6.806;2022-09-13T09:41:05;96256.91;;;15.56;100.00
46614;BME280;32338;50.430;6.806;2022-09-13T09:43:42;96260.94;;;15.71;100.00
46614;BME280;32338;50.430;6.806;2022-09-13T09:46:13;96263.25;;;15.79;100.00
46614;BME280;32338;50.430;6.806;2022-09-13T09:48:47;96261.88;;;15.77;100.00
46614;BME280;32338;50.430;6.806;2022-09-13T09:51:17;96267.34;;;15.82;100.00
46614;BME280;32338;50.430;6.806;2022-09-13T09:53:47;96268.22;;;15.76;100.00
46614;BME280;32338;50.430;6.806;2022-09-13T09:56:21;96266.06;;;15.84;100.00
46614;BME280;32338;50.430;6.806;2022-09-13T09:58:50;96279.94;;;15.86;100.00
46614;BME280;32338;50.430;6.806;2022-09-13T10:01:21;96270.63;;;16.13;100.00
46614;BME280;32338;50.430;6.806;2022-09-13T10:03:52;96267.44;;;15.99;100.00
46614;BME280;32338;50.430;6.806;2022-09-13T10:06:21;96262.75;;;16.18;100.00
46614;BME280;32338;50.430;6.806;2022-09-13T10:08:55;96263.06;;;16.21;100.00
46614;BME280;32338;50.430;6.806;2022-09-13T10:11:37;96257.41;;;16.18;100.00
46614;BME280;32338;50.430;6.806;2022-09-13T10:14:05;96258.44;;;16.17;100.00
46614;BME280;32338;50.430;6.806;2022-09-13T10:16:32;96261.44;;;16.20;100.00
46614;BME280;32338;50.430;6.806;2022-09-13T10:19:22;96258.72;;;16.32;100.00
46614;BME280;32338;50.430;6.806;2022-09-13T10:21:59;96244.19;;;16.52;100.00
46614;BME280;32338;50.430;6.806;2022-09-13T10:24:27;96242.50;;;16.63;100.00
46614;BME280;32338;50.430;6.806;2022-09-13T10:26:54;96232.31;;;16.60;100.00
46614;BME280;32338;50.430;6.806;2022-09-13T10:29:23;96234.44;;;16.58;100.00
46614;BME280;32338;50.430;6.806;2022-09-13T10:31:51;96225.56;;;16.86;100.00
46614;BME280;32338;50.430;6.806;2022-09-13T10:34:22;96225.72;;;16.79;100.00
46614;BME280;32338;50.430;6.806;2022-09-13T10:36:54;96226.94;;;16.89;100.00
46614;BME280;32338;50.430;6.806;2022-09-13T10:39:22;96218.72;;;17.07;100.00
46614;BME280;32338;50.430;6.806;2022-09-13T10:41:52;96217.41;;;17.27;100.00
46614;BME280;32338;50.430;6.806;2022-09-13T10:44:26;96216.44;;;17.33;100.00
46614;BME280;32338;50.430;6.806;2022-09-13T10:46:54;96213.06;;;17.60;100.00
46614;BME280;32338;50.430;6.806;2022-09-13T10:49:38;96205.78;;;17.55;100.00
46614;BME280;32338;50.430;6.806;2022-09-13T10:52:24;96197.88;;;17.43;100.00
46614;BME280;32338;50.430;6.806;2022-09-13T10:54:51;96196.91;;;17.49;100.00
46614;BME280;32338;50.430;6.806;2022-09-13T10:57:39;96200.88;;;17.47;100.00
46614;BME280;32338;50.430;6.806;2022-09-13T11:00:10;96197.16;;;17.48;100.00
46614;BME280;32338;50.430;6.806;2022-09-13T11:02:58;96180.03;;;17.66;100.00
46614;BME280;32338;50.430;6.806;2022-09-13T11:05:34;96186.69;;;17.86;100.00
46614;BME280;32338;50.430;6.806;2022-09-13T11:08:17;96192.28;;;17.84;100.00
46614;BME280;32338;50.430;6.806;2022-09-13T11:10:57;96200.66;;;17.93;100.00
46614;BME280;32338;50.430;6.806;2022-09-13T11:13:36;96210.88;;;17.96;100.00
46614;BME280;32338;50.430;6.806;2022-09-13T11:16:21;96204.88;;;17.89;100.00
46614;BME280;32338;50.430;6.806;2022-09-13T11:19:16;96191.28;;;18.12;100.00
46614;BME280;32338;50.430;6.806;2022-09-13T11:22:08;96189.59;;;18.06;100.00
46614;BME280;32338;50.430;6.806;2022-09-13T11:24:46;96180.19;;;18.26;100.00
46614;BME280;32338;50.430;6.806;2022-09-13T11:27:22;96183.34;;;18.23;100.00
46614;BME280;32338;50.430;6.806;2022-09-13T11:30:04;96177.66;;;18.14;100.00
46614;BME280;32338;50.430;6.806;2022-09-13T11:32:48;96192.63;;;18.15;100.00
46614;BME280;32338;50.430;6.806;2022-09-13T11:35:28;96194.28;;;18.43;100.00
46614;BME280;32338;50.430;6.806;2022-09-13T11:38:07;96194.50;;;18.37;100.00
46614;BME280;32338;50.430;6.806;2022-09-13T11:40:50;96201.63;;;18.58;100.00
46614;BME280;32338;50.430;6.806;2022-09-13T11:43:31;96196.91;;;18.38;100.00
46614;BME280;32338;50.430;6.806;2022-09-13T11:46:04;96195.31;;;18.70;100.00
46614;BME280;32338;50.430;6.806;2022-09-13T11:48:50;96188.00;;;18.60;100.00
46614;BME280;32338;50.430;6.806;2022-09-13T11:51:27;96185.59;;;18.58;100.00
46614;BME280;32338;50.430;6.806;2022-09-13T11:54:10;96183.19;;;18.89;100.00
46614;BME280;32338;50.430;6.806;2022-09-13T11:56:41;96184.88;;;18.68;100.00
46614;BME280;32338;50.430;6.806;2022-09-13T11:59:17;96177.50;;;18.80;100.00
46614;BME280;32338;50.430;6.806;2022-09-13T12:01:48;96167.09;;;18.84;100.00
46614;BME280;32338;50.430;6.806;2022-09-13T12:04:22;96165.47;;;18.83;100.00
46614;BME280;32338;50.430;6.806;2022-09-13T12:06:53;96165.91;;;19.02;100.00
46614;BME280;32338;50.430;6.806;2022-09-13T12:09:24;96169.28;;;19.30;100.00
46614;BME280;32338;50.430;6.806;2022-09-13T12:11:57;96169.31;;;19.35;100.00
46614;BME280;32338;50.430;6.806;2022-09-13T12:14:33;96161.09;;;19.52;100.00
46614;BME280;32338;50.430;6.806;2022-09-13T12:17:05;96168.88;;;19.54;100.00
46614;BME280;32338;50.430;6.806;2022-09-13T12:19:40;96160.34;;;19.62;100.00
46614;BME280;32338;50.430;6.806;2022-09-13T12:22:08;96156.56;;;19.58;100.00
46614;BME280;32338;50.430;6.806;2022-09-13T12:24:39;96149.94;;;19.71;100.00
46614;BME280;32338;50.430;6.806;2022-09-13T12:27:12;96156.38;;;19.75;100.00
46614;BME280;32338;50.430;6.806;2022-09-13T12:29:44;96155.03;;;19.72;100.00
46614;BME280;32338;50.430;6.806;2022-09-13T12:32:14;96148.59;;;19.73;100.00
46614;BME280;32338;50.430;6.806;2022-09-13T12:34:47;96137.75;;;19.48;100.00
46614;BME280;32338;50.430;6.806;2022-09-13T12:37:43;96132.97;;;19.55;100.00
46614;BME280;32338;50.430;6.806;2022-09-13T12:40:40;96131.31;;;19.43;100.00
46614;BME280;32338;50.430;6.806;2022-09-13T12:43:23;96130.25;;;19.39;100.00
46614;BME280;32338;50.430;6.806;2022-09-13T12:46:08;96133.97;;;19.38;100.00
46614;BME280;32338;50.430;6.806;2022-09-13T12:48:51;96135.81;;;19.33;100.00
46614;BME280;32338;50.430;6.806;2022-09-13T12:51:32;96134.97;;;19.22;100.00
46614;BME280;32338;50.430;6.806;2022-09-13T12:54:26;96136.75;;;19.06;100.00
46614;BME280;32338;50.430;6.806;2022-09-13T12:57:02;96136.03;;;19.21;100.00
46614;BME280;32338;50.430;6.806;2022-09-13T13:02:36;96135.44;;;19.14;100.00
46614;BME280;32338;50.430;6.806;2022-09-13T13:05:17;96136.38;;;18.92;100.00
46614;BME280;32338;50.430;6.806;2022-09-13T13:07:51;96137.38;;;18.86;100.00
46614;BME280;32338;50.430;6.806;2022-09-13T13:10:28;96144.47;;;18.70;100.00
46614;BME280;32338;50.430;6.806;2022-09-13T13:13:08;96141.34;;;18.78;100.00
46614;BME280;32338;50.430;6.806;2022-09-13T13:16:05;96136.50;;;18.75;100.00
46614;BME280;32338;50.430;6.806;2022-09-13T13:18:46;96136.72;;;18.68;100.00
46614;BME280;32338;50.430;6.806;2022-09-13T13:21:32;96132.47;;;18.72;100.00